createdAt,value
2022-11-17T00:00:33.166Z,3.83
2022-11-17T00:02:59.658Z,4.68
2022-11-17T00:05:26.328Z,5.78
2022-11-17T00:07:52.848Z,4.38
2022-11-17T00:10:19.633Z,6.53
2022-11-17T00:13:04.680Z,4.82
2022-11-17T00:15:31.438Z,4.15
2022-11-17T00:18:16.661Z,5.35
2022-11-17T00:21:01.884Z,4.43
2022-11-17T00:23:47.155Z,4.78
2022-11-17T00:26:22.566Z,4.60
2022-11-17T00:28:54.526Z,4.03
2022-11-17T00:31:41.371Z,4.82
2022-11-17T00:34:12.731Z,4.88
2022-11-17T00:36:42.699Z,5.00
2022-11-17T00:39:10.286Z,4.97
2022-11-17T00:41:36.916Z,5.05
2022-11-17T00:44:03.905Z,5.35
2022-11-17T00:46:31.129Z,5.28
2022-11-17T00:48:57.690Z,5.88
2022-11-17T00:51:25.428Z,4.93
2022-11-17T00:53:52.179Z,4.28
2022-11-17T00:56:18.992Z,5.30
2022-11-17T00:58:45.756Z,5.13
2022-11-17T01:01:13.009Z,5.10
2022-11-17T01:03:39.697Z,4.18
2022-11-17T01:06:15.618Z,4.43
2022-11-17T01:08:42.715Z,4.70
2022-11-17T01:11:13.154Z,4.88
2022-11-17T01:13:40.754Z,4.03
2022-11-17T01:16:20.545Z,5.13
2022-11-17T01:18:48.792Z,5.07
2022-11-17T01:21:24.226Z,5.13
2022-11-17T01:23:53.450Z,4.65
2022-11-17T01:26:22.941Z,4.57
2022-11-17T01:28:50.216Z,5.10
2022-11-17T01:31:19.228Z,4.50
2022-11-17T01:33:46.724Z,4.28
2022-11-17T01:36:21.630Z,3.97
2022-11-17T01:38:48.258Z,4.30
2022-11-17T01:41:18.562Z,3.88
2022-11-17T01:43:51.230Z,3.42
2022-11-17T01:46:20.723Z,3.38
2022-11-17T01:48:49.955Z,3.30
2022-11-17T01:51:17.534Z,3.33
2022-11-17T01:53:45.298Z,4.45
2022-11-17T01:56:20.208Z,2.42
2022-11-17T01:58:51.334Z,2.17
2022-11-17T02:01:18.161Z,2.78
2022-11-17T02:03:48.203Z,3.72
2022-11-17T02:06:31.048Z,2.13
2022-11-17T02:08:58.239Z,2.30
2022-11-17T02:11:26.083Z,2.45
2022-11-17T02:13:55.939Z,2.92
2022-11-17T02:16:22.496Z,3.50
2022-11-17T02:18:49.249Z,3.55
2022-11-17T02:21:52.385Z,3.05
2022-11-17T02:24:18.930Z,3.42
2022-11-17T02:27:00.450Z,3.08
2022-11-17T02:30:08.690Z,4.13
2022-11-17T02:32:50.720Z,3.72
2022-11-17T02:35:39.310Z,3.08
2022-11-17T02:38:41.112Z,3.03
2022-11-17T02:41:13.871Z,3.30
2022-11-17T02:44:37.100Z,3.05
2022-11-17T02:47:12.600Z,3.40
2022-11-17T02:49:44.730Z,3.40
2022-11-17T02:52:12.738Z,3.60
2022-11-17T02:54:39.229Z,3.28
2022-11-17T02:57:05.817Z,3.60
2022-11-17T02:59:40.508Z,2.60
2022-11-17T03:02:33.687Z,3.72
2022-11-17T03:05:29.925Z,3.42
2022-11-17T03:07:59.555Z,3.15
2022-11-17T03:10:39.057Z,3.70
2022-11-17T03:13:44.115Z,2.58
2022-11-17T03:16:29.096Z,3.10
2022-11-17T03:19:19.464Z,3.20
2022-11-17T03:22:07.666Z,3.65
2022-11-17T03:24:39.192Z,4.22
2022-11-17T03:27:25.477Z,3.75
2022-11-17T03:29:58.292Z,3.92
2022-11-17T03:32:27.177Z,3.97
2022-11-17T03:35:00.030Z,3.67
2022-11-17T03:37:31.383Z,3.78
2022-11-17T03:40:04.385Z,4.73
2022-11-17T03:42:34.919Z,4.20
2022-11-17T03:47:24.044Z,4.20
2022-11-17T03:52:25.197Z,3.50
2022-11-17T03:54:52.956Z,3.08
2022-11-17T03:59:59.112Z,4.57
2022-11-17T04:02:26.779Z,3.08
2022-11-17T04:05:05.433Z,3.35
2022-11-17T04:07:32.871Z,3.47
2022-11-17T04:09:59.455Z,3.30
2022-11-17T04:12:46.723Z,3.13
2022-11-17T04:15:32.222Z,3.05
2022-11-17T04:17:59.514Z,2.63
2022-11-17T04:20:26.412Z,3.47
2022-11-17T04:23:08.012Z,2.95
2022-11-17T04:26:00.077Z,3.73
2022-11-17T04:28:37.690Z,3.63
2022-11-17T04:31:04.395Z,3.40
2022-11-17T04:33:31.071Z,3.35
2022-11-17T04:35:57.676Z,3.50
2022-11-17T04:38:24.264Z,3.50
2022-11-17T04:41:09.525Z,3.58
2022-11-17T04:43:38.650Z,3.30
2022-11-17T04:46:05.614Z,3.60
2022-11-17T04:48:32.307Z,3.15
2022-11-17T04:50:58.872Z,4.22
2022-11-17T04:53:25.447Z,3.38
2022-11-17T04:55:51.980Z,3.30
2022-11-17T04:58:18.551Z,3.20
2022-11-17T05:00:45.031Z,2.95
2022-11-17T05:03:12.102Z,3.42
2022-11-17T05:05:38.688Z,2.60
2022-11-17T05:08:05.320Z,3.47
2022-11-17T05:10:50.602Z,3.97
2022-11-17T05:13:24.982Z,3.25
2022-11-17T05:16:14.995Z,3.90
2022-11-17T05:18:43.465Z,3.40
2022-11-17T05:21:11.360Z,3.80
2022-11-17T05:23:56.707Z,3.15
2022-11-17T05:26:35.368Z,4.60
2022-11-17T05:29:04.332Z,6.85
2022-11-17T05:31:31.847Z,2.83
2022-11-17T05:33:58.867Z,2.28
2022-11-17T05:36:26.520Z,2.72
2022-11-17T05:38:54.442Z,2.05
2022-11-17T05:41:22.241Z,3.33
2022-11-17T05:43:50.405Z,3.25
2022-11-17T05:46:18.703Z,2.83
2022-11-17T05:48:46.279Z,3.42
2022-11-17T05:51:13.005Z,2.75
2022-11-17T05:53:39.624Z,3.10
2022-11-17T05:56:30.983Z,2.30
2022-11-17T05:59:28.073Z,3.45
2022-11-17T06:02:11.471Z,2.28
2022-11-17T06:04:39.258Z,2.28
2022-11-17T06:07:06.143Z,2.80
2022-11-17T06:09:36.611Z,3.85
2022-11-17T06:12:06.260Z,2.80
2022-11-17T06:14:34.429Z,2.70
2022-11-17T06:17:10.040Z,3.30
2022-11-17T06:19:43.223Z,2.63
2022-11-17T06:22:12.984Z,3.17
2022-11-17T06:24:41.894Z,3.25
2022-11-17T06:27:09.658Z,3.15
2022-11-17T06:29:42.452Z,2.40
2022-11-17T06:32:15.659Z,2.75
2022-11-17T06:34:49.119Z,2.65
2022-11-17T06:37:18.715Z,2.78
2022-11-17T06:39:45.216Z,2.17
2022-11-17T06:42:11.967Z,3.40
2022-11-17T06:44:38.473Z,2.15
2022-11-17T06:47:05.227Z,3.50
2022-11-17T06:49:31.781Z,2.72
2022-11-17T06:51:58.432Z,3.13
2022-11-17T06:54:25.004Z,3.20
2022-11-17T06:56:52.447Z,3.72
2022-11-17T06:59:18.972Z,3.78
2022-11-17T07:01:45.643Z,3.75
2022-11-17T07:04:12.428Z,4.38
2022-11-17T07:06:39.303Z,5.22
2022-11-17T07:09:06.058Z,4.40
2022-11-17T07:11:36.185Z,3.75
2022-11-17T07:14:03.015Z,3.97
2022-11-17T07:18:46.344Z,2.67
2022-11-17T07:21:14.496Z,3.47
2022-11-17T07:23:42.965Z,3.53
2022-11-17T07:26:09.599Z,3.60
2022-11-17T07:28:36.751Z,5.45
2022-11-17T07:31:05.852Z,3.45
2022-11-17T07:33:33.102Z,3.85
2022-11-17T07:36:09.375Z,4.07
2022-11-17T07:38:38.123Z,4.32
2022-11-17T07:41:05.993Z,3.08
2022-11-17T07:43:34.366Z,5.82
2022-11-17T07:46:10.504Z,5.35
2022-11-17T07:48:37.316Z,4.97
2022-11-17T07:51:05.367Z,3.80
2022-11-17T07:53:34.459Z,6.03
2022-11-17T07:56:09.719Z,4.85
2022-11-17T07:58:38.095Z,4.82
2022-11-17T08:01:10.001Z,5.07
2022-11-17T08:03:36.754Z,5.20
2022-11-17T08:06:08.006Z,5.05
2022-11-17T08:08:35.779Z,6.75
2022-11-17T08:11:11.398Z,8.95
2022-11-17T08:13:40.596Z,8.52
2022-11-17T08:16:09.202Z,5.10
2022-11-17T08:18:36.991Z,4.32
2022-11-17T08:23:35.879Z,3.72
2022-11-17T08:26:03.507Z,4.78
2022-11-17T08:28:30.508Z,6.18
2022-11-17T08:30:57.188Z,4.93
2022-11-17T08:33:23.766Z,5.70
2022-11-17T08:35:50.395Z,5.05
2022-11-17T08:38:17.108Z,4.13
2022-11-17T08:40:44.320Z,4.80
2022-11-17T08:43:10.798Z,4.28
2022-11-17T08:45:37.442Z,5.70
2022-11-17T08:48:04.350Z,5.22
2022-11-17T08:50:31.079Z,7.32
2022-11-17T08:52:57.600Z,5.43
2022-11-17T08:55:26.318Z,6.15
2022-11-17T08:57:53.046Z,5.43
2022-11-17T09:00:21.729Z,5.30
2022-11-17T09:02:48.543Z,5.57
2022-11-17T09:05:15.223Z,6.15
2022-11-17T09:07:41.771Z,8.80
2022-11-17T09:10:11.020Z,7.90
2022-11-17T09:12:37.730Z,5.93
2022-11-17T09:15:05.358Z,6.35
2022-11-17T09:17:32.002Z,5.40
2022-11-17T09:19:58.566Z,4.60
2022-11-17T09:22:25.082Z,6.45
2022-11-17T09:24:52.053Z,4.60
2022-11-17T09:27:18.601Z,5.22
2022-11-17T09:29:45.187Z,4.85
2022-11-17T09:32:12.407Z,5.25
2022-11-17T09:34:39.054Z,7.22
2022-11-17T09:37:05.562Z,4.38
2022-11-17T09:39:32.190Z,6.88
2022-11-17T09:41:58.847Z,11.00
2022-11-17T09:44:36.618Z,11.35
2022-11-17T09:47:23.164Z,4.22
2022-11-17T09:49:59.479Z,4.07
2022-11-17T09:52:26.994Z,3.97
2022-11-17T09:54:58.250Z,4.22
2022-11-17T09:57:36.902Z,4.80
2022-11-17T10:00:13.010Z,5.15
2022-11-17T10:02:39.894Z,4.22
2022-11-17T10:05:11.996Z,4.90
2022-11-17T10:07:46.850Z,5.38
2022-11-17T10:10:19.296Z,4.35
2022-11-17T10:12:54.840Z,5.80
2022-11-17T10:15:29.324Z,8.02
2022-11-17T10:17:55.950Z,6.57
2022-11-17T10:20:22.755Z,8.10
2022-11-17T10:22:51.912Z,10.98
2022-11-17T10:25:36.033Z,8.10
2022-11-17T10:28:03.147Z,5.85
2022-11-17T10:30:29.703Z,6.13
2022-11-17T10:35:36.039Z,7.68
2022-11-17T10:38:08.793Z,5.75
2022-11-17T10:40:58.264Z,5.35
2022-11-17T10:43:32.591Z,5.35
2022-11-17T10:46:02.185Z,6.95
2022-11-17T10:48:37.442Z,9.82
2022-11-17T10:51:25.486Z,6.47
2022-11-17T10:54:21.452Z,3.47
2022-11-17T10:56:51.549Z,3.60
2022-11-17T10:59:41.867Z,3.80
2022-11-17T11:02:38.314Z,3.97
2022-11-17T11:05:17.258Z,3.90
2022-11-17T11:07:44.486Z,5.10
2022-11-17T11:10:29.792Z,5.38
2022-11-17T11:13:15.110Z,6.93
2022-11-17T11:15:42.001Z,4.97
2022-11-17T11:18:17.185Z,6.43
2022-11-17T11:21:14.341Z,4.25
2022-11-17T11:23:59.511Z,3.45
2022-11-17T11:26:44.115Z,4.88
2022-11-17T11:29:41.316Z,5.93
2022-11-17T11:32:10.731Z,4.47
2022-11-17T11:34:49.358Z,4.28
2022-11-17T11:37:16.431Z,4.20
2022-11-17T11:39:59.182Z,4.57
2022-11-17T11:42:40.991Z,5.70
2022-11-17T11:45:22.358Z,6.68
2022-11-17T11:48:13.768Z,4.65
2022-11-17T11:50:59.145Z,6.93
2022-11-17T11:56:09.552Z,6.07
2022-11-17T11:58:42.076Z,6.45
2022-11-17T12:01:12.107Z,8.40
2022-11-17T12:04:04.380Z,5.10
2022-11-17T12:06:43.055Z,3.90
2022-11-17T12:09:33.593Z,4.43
2022-11-17T12:12:06.895Z,7.32
2022-11-17T12:14:36.721Z,6.75
2022-11-17T12:17:14.812Z,21.38
2022-11-17T12:19:44.307Z,8.10
2022-11-17T12:22:41.466Z,13.38
2022-11-17T12:25:14.226Z,7.78
2022-11-17T12:27:42.793Z,6.53
2022-11-17T12:30:31.123Z,5.15
2022-11-17T12:32:59.797Z,5.70
2022-11-17T12:35:33.974Z,5.47
2022-11-17T12:38:21.235Z,6.32
2022-11-17T12:40:52.281Z,8.45
2022-11-17T12:43:21.367Z,7.50
2022-11-17T12:45:53.607Z,5.88
2022-11-17T12:51:26.779Z,7.10
2022-11-17T12:54:20.683Z,5.55
2022-11-17T12:57:05.502Z,5.60
2022-11-17T12:59:56.505Z,5.88
2022-11-17T13:02:34.918Z,8.00
2022-11-17T13:05:16.301Z,10.10
2022-11-17T13:07:42.876Z,6.38
2022-11-17T13:10:27.825Z,10.10
2022-11-17T13:13:13.180Z,8.45
2022-11-17T13:15:42.654Z,6.55
2022-11-17T13:18:36.396Z,6.18
2022-11-17T13:21:05.112Z,6.38
2022-11-17T13:23:33.597Z,5.32
2022-11-17T13:26:21.472Z,5.18
2022-11-17T13:29:01.418Z,7.72
2022-11-17T13:31:28.040Z,6.38
2022-11-17T13:33:58.139Z,6.68
2022-11-17T13:36:27.102Z,8.20
2022-11-17T13:38:57.272Z,6.38
2022-11-17T13:41:25.742Z,6.97
2022-11-17T13:43:54.008Z,5.35
2022-11-17T13:46:21.095Z,5.57
2022-11-17T13:48:49.850Z,6.75
2022-11-17T13:51:25.283Z,8.20
2022-11-17T13:54:00.965Z,5.85
2022-11-17T13:56:38.463Z,5.57
2022-11-17T13:59:27.387Z,5.68
2022-11-17T14:02:15.956Z,5.80
2022-11-17T14:05:14.975Z,6.05
2022-11-17T14:07:43.503Z,10.52
2022-11-17T14:10:25.352Z,10.63
2022-11-17T14:12:53.130Z,8.30
2022-11-17T14:15:24.541Z,7.55
2022-11-17T14:17:56.441Z,10.13
2022-11-17T14:20:25.808Z,7.55
2022-11-17T14:23:10.386Z,6.88
2022-11-17T14:25:45.308Z,6.25
2022-11-17T14:28:20.708Z,8.07
2022-11-17T14:30:55.010Z,8.20
2022-11-17T14:33:21.836Z,7.75
2022-11-17T14:35:55.224Z,5.93
2022-11-17T14:38:22.673Z,6.43
2022-11-17T14:40:53.547Z,6.40
2022-11-17T14:43:22.365Z,8.27
2022-11-17T14:45:50.222Z,8.65
2022-11-17T14:48:20.174Z,10.00
2022-11-17T14:50:48.134Z,8.73
2022-11-17T14:53:14.904Z,8.25
2022-11-17T14:55:41.455Z,6.03
2022-11-17T14:58:09.935Z,8.63
2022-11-17T15:00:36.729Z,7.15
2022-11-17T15:03:03.402Z,8.63
2022-11-17T15:05:30.143Z,10.32
2022-11-17T15:07:56.691Z,9.70
2022-11-17T15:10:23.399Z,9.50
2022-11-17T15:12:50.000Z,11.13
2022-11-17T15:15:17.985Z,12.13
2022-11-17T15:17:44.825Z,13.93
2022-11-17T15:20:11.950Z,12.48
2022-11-17T15:22:38.580Z,14.00
2022-11-17T15:25:05.660Z,12.88
2022-11-17T15:27:32.288Z,14.20
2022-11-17T15:29:59.190Z,15.65
2022-11-17T15:32:27.231Z,11.02
2022-11-17T15:34:53.948Z,11.70
2022-11-17T15:37:20.452Z,8.63
2022-11-17T15:39:47.008Z,8.07
2022-11-17T15:42:13.535Z,9.05
2022-11-17T15:44:41.010Z,9.57
2022-11-17T15:47:07.560Z,10.23
2022-11-17T15:49:34.219Z,11.40
2022-11-17T15:52:00.816Z,11.05
2022-11-17T15:54:27.335Z,10.77
2022-11-17T15:56:53.918Z,9.82
2022-11-17T15:59:20.657Z,11.20
2022-11-17T16:01:47.742Z,10.63
2022-11-17T16:04:18.163Z,9.93
2022-11-17T16:06:46.667Z,10.43
2022-11-17T16:09:13.567Z,10.85
2022-11-17T16:11:41.058Z,14.10
2022-11-17T16:14:07.663Z,12.23
2022-11-17T16:16:38.743Z,12.13
2022-11-17T16:19:06.218Z,13.40
2022-11-17T16:21:33.073Z,9.57
2022-11-17T16:24:00.835Z,11.82
2022-11-17T16:26:28.812Z,8.60
2022-11-17T16:29:00.509Z,9.73
2022-11-17T16:31:29.495Z,10.02
2022-11-17T16:34:01.121Z,11.60
2022-11-17T16:36:35.924Z,10.35
2022-11-17T16:39:05.986Z,16.55
2022-11-17T16:41:37.934Z,11.63
2022-11-17T16:44:12.586Z,11.43
2022-11-17T16:46:42.160Z,11.65
2022-11-17T16:49:11.680Z,14.13
2022-11-17T16:51:38.854Z,10.05
2022-11-17T16:54:07.088Z,11.57
2022-11-17T16:56:34.334Z,9.18
2022-11-17T16:59:00.953Z,10.55
2022-11-17T17:01:33.103Z,12.43
2022-11-17T17:06:28.095Z,11.80
2022-11-17T17:08:59.602Z,10.77
2022-11-17T17:11:28.946Z,12.73
2022-11-17T17:13:56.495Z,18.63
2022-11-17T17:16:25.010Z,13.20
2022-11-17T17:18:56.273Z,11.57
2022-11-17T17:21:23.801Z,13.80
2022-11-17T17:23:50.660Z,15.32
2022-11-17T17:26:19.654Z,15.98
2022-11-17T17:28:48.364Z,15.25
2022-11-17T17:31:21.370Z,10.20
2022-11-17T17:33:50.138Z,9.40
2022-11-17T17:36:21.691Z,14.00
2022-11-17T17:38:55.077Z,15.77
2022-11-17T17:41:24.404Z,15.05
2022-11-17T17:43:59.127Z,13.00
2022-11-17T17:46:29.562Z,12.45
2022-11-17T17:48:59.273Z,13.25
2022-11-17T17:53:53.507Z,12.38
2022-11-17T17:56:21.556Z,12.60
2022-11-17T17:58:51.881Z,12.63
2022-11-17T18:01:30.209Z,16.20
2022-11-17T18:04:01.339Z,11.95
2022-11-17T18:06:28.517Z,17.70
2022-11-17T18:08:55.120Z,15.38
2022-11-17T18:11:25.539Z,14.73
2022-11-17T18:13:53.221Z,15.82
2022-11-17T18:16:25.415Z,18.10
2022-11-17T18:21:28.517Z,14.70
2022-11-17T18:23:56.395Z,15.02
2022-11-17T18:26:26.249Z,16.00
2022-11-17T18:28:56.371Z,14.48
2022-11-17T18:31:25.076Z,14.95
2022-11-17T18:33:59.751Z,11.93
2022-11-17T18:36:27.274Z,14.38
2022-11-17T18:41:11.764Z,14.57
2022-11-17T18:43:39.142Z,14.27
2022-11-17T18:46:09.288Z,14.98
2022-11-17T18:48:38.307Z,18.23
2022-11-17T18:51:19.562Z,13.80
2022-11-17T18:53:47.411Z,11.00
2022-11-17T18:56:16.531Z,16.08
2022-11-17T18:58:43.381Z,14.80
2022-11-17T19:01:14.945Z,15.15
2022-11-17T19:03:44.640Z,16.17
2022-11-17T19:06:12.664Z,13.43
2022-11-17T19:08:39.571Z,15.65
2022-11-17T19:11:08.341Z,16.10
2022-11-17T19:13:37.296Z,17.08
2022-11-17T19:16:10.367Z,13.23
2022-11-17T19:18:38.135Z,15.35
2022-11-17T19:21:14.417Z,12.45
2022-11-17T19:23:48.012Z,12.73
2022-11-17T19:26:23.031Z,15.35
2022-11-17T19:28:50.407Z,12.95
2022-11-17T19:31:19.621Z,15.10
2022-11-17T19:33:47.816Z,13.95
2022-11-17T19:36:22.793Z,14.35
2022-11-17T19:38:54.155Z,16.17
2022-11-17T19:41:28.280Z,12.75
2022-11-17T19:43:57.590Z,15.63
2022-11-17T19:46:25.638Z,13.38
2022-11-17T19:48:53.078Z,16.55
2022-11-17T19:51:29.164Z,15.73
2022-11-17T19:53:58.619Z,18.90
2022-11-17T19:56:25.898Z,17.38
2022-11-17T19:58:53.767Z,15.57
2022-11-17T20:01:26.196Z,18.42
2022-11-17T20:03:56.190Z,18.05
2022-11-17T20:06:27.169Z,18.08
2022-11-17T20:08:57.323Z,19.40
2022-11-17T20:11:26.765Z,15.57
2022-11-17T20:13:54.326Z,19.88
2022-11-17T20:16:26.508Z,18.40
2022-11-17T20:21:21.586Z,20.13
2022-11-17T20:23:48.984Z,20.05
2022-11-17T20:26:18.996Z,22.40
2022-11-17T20:28:46.761Z,18.13
2022-11-17T20:31:19.377Z,16.38
2022-11-17T20:33:46.985Z,16.33
2022-11-17T20:36:21.702Z,17.52
2022-11-17T20:38:56.345Z,18.40
2022-11-17T20:41:24.296Z,17.15
2022-11-17T20:43:56.340Z,18.17
2022-11-17T20:46:24.154Z,17.13
2022-11-17T20:48:53.088Z,16.98
2022-11-17T20:51:23.211Z,15.90
2022-11-17T20:53:50.400Z,15.10
2022-11-17T20:56:17.435Z,15.65
2022-11-17T20:58:44.549Z,16.33
2022-11-17T21:01:16.656Z,12.77
2022-11-17T21:06:10.913Z,17.50
2022-11-17T21:11:00.611Z,15.93
2022-11-17T21:13:28.732Z,16.95
2022-11-17T21:16:09.527Z,17.00
2022-11-17T21:18:37.767Z,17.40
2022-11-17T21:21:08.583Z,17.88
2022-11-17T21:23:37.208Z,17.30
2022-11-17T21:26:07.975Z,17.45
2022-11-17T21:28:36.845Z,20.92
2022-11-17T21:31:09.843Z,14.65
2022-11-17T21:33:37.551Z,15.98
2022-11-17T21:36:09.034Z,16.20
2022-11-17T21:38:35.973Z,17.30
2022-11-17T21:41:17.163Z,15.18
2022-11-17T21:43:45.946Z,14.30
2022-11-17T21:46:15.296Z,15.27
2022-11-17T21:48:42.398Z,15.40
2022-11-17T21:51:16.030Z,13.20
2022-11-17T21:53:43.049Z,17.98
2022-11-17T21:56:09.913Z,16.63
2022-11-17T22:02:57.052Z,17.20
2022-11-17T22:10:39.831Z,13.35
2022-11-17T22:13:08.238Z,12.68
2022-11-17T22:15:35.440Z,16.00
2022-11-17T22:18:02.408Z,13.85
2022-11-17T22:20:29.143Z,13.30
2022-11-17T22:22:58.562Z,14.75
2022-11-17T22:25:44.130Z,15.95
2022-11-17T22:28:11.930Z,16.25
2022-11-17T22:30:39.336Z,16.80
2022-11-17T22:33:05.901Z,15.75
2022-11-17T22:35:32.538Z,16.75
2022-11-17T22:37:59.194Z,15.05
2022-11-17T22:40:25.804Z,16.65
2022-11-17T22:42:52.814Z,16.02
2022-11-17T22:45:19.559Z,16.35
2022-11-17T22:47:46.252Z,16.10
2022-11-17T22:50:12.989Z,18.83
2022-11-17T22:52:39.819Z,13.82
2022-11-17T22:55:06.885Z,15.50
2022-11-17T22:57:33.554Z,14.00
2022-11-17T23:00:00.121Z,15.52
2022-11-17T23:02:26.787Z,14.27
2022-11-17T23:07:17.991Z,15.18
2022-11-17T23:09:44.616Z,15.27
2022-11-17T23:12:11.120Z,15.25
2022-11-17T23:14:37.752Z,12.50
2022-11-17T23:17:04.298Z,16.40
2022-11-17T23:19:30.847Z,17.30
2022-11-17T23:21:58.055Z,12.98
2022-11-17T23:24:24.894Z,13.90
2022-11-17T23:26:51.447Z,14.98
2022-11-17T23:29:18.696Z,14.85
2022-11-17T23:31:45.404Z,15.95
2022-11-17T23:34:12.064Z,13.82
2022-11-17T23:36:39.265Z,14.05
2022-11-17T23:39:06.523Z,13.05
2022-11-17T23:41:33.451Z,14.10
2022-11-17T23:44:00.976Z,14.55
2022-11-17T23:46:28.767Z,11.60
2022-11-17T23:48:57.838Z,12.65
2022-11-17T23:51:26.467Z,14.18
2022-11-17T23:53:54.269Z,15.18
2022-11-17T23:56:23.188Z,14.55
2022-11-17T23:58:51.952Z,16.63
